CPA548 VHHH-RJTT
Flight info
| Callsign | CPA548 |
|---|---|
| Flight time | N/A |
| Altitude | 37000 |
| Route | DUMEP V631 ENVAR M750 BILLY Y21 AKSEL |
| Aircraft | B77W/H-SDE1E2E3FGHIJ2J3J4J5M1RWXY/LB1D1 |
Departure
| Time | 2026-04-30 22:00 |
|---|---|
| Airport | Hong Kong International Airport (VHHH) |
Arrival
| Time | N/A |
|---|---|
| Airport | Tokyo Haneda International Airport (RJTT) |
| Time | Latitude | Longitude | Altitude | Speed | Heading |
|---|---|---|---|---|---|
| 2026-04-30 21:46 | 22.31472 | 113.92553 | 42 ft | 0 kts | 206° |
| 2026-04-30 21:49 | 22.31482 | 113.92558 | 42 ft | 4 kts | 206° |
| 2026-04-30 21:49 | 22.31506 | 113.92571 | 41 ft | 4 kts | 206° |
| 2026-04-30 21:49 | 22.31530 | 113.92583 | 39 ft | 4 kts | 206° |
| 2026-04-30 21:49 | 22.31549 | 113.92596 | 38 ft | 4 kts | 236° |
| 2026-04-30 21:50 | 22.31555 | 113.92614 | 39 ft | 4 kts | 277° |
| 2026-04-30 21:50 | 22.31550 | 113.92634 | 36 ft | 2 kts | 295° |
| 2026-04-30 21:50 | 22.31542 | 113.92652 | 40 ft | 0 kts | 295° |
| 2026-04-30 21:52 | 22.31557 | 113.92618 | 42 ft | 15 kts | 295° |
| 2026-04-30 21:52 | 22.31631 | 113.92454 | 42 ft | 22 kts | 296° |
| 2026-04-30 21:53 | 22.31647 | 113.92355 | 42 ft | 9 kts | 242° |
| 2026-04-30 21:53 | 22.31621 | 113.92287 | 41 ft | 10 kts | 251° |
| 2026-04-30 21:53 | 22.31596 | 113.92208 | 41 ft | 12 kts | 251° |
| 2026-04-30 21:53 | 22.31574 | 113.92137 | 41 ft | 19 kts | 251° |
| 2026-04-30 21:54 | 22.31562 | 113.92102 | 41 ft | 22 kts | 251° |
| 2026-04-30 21:54 | 22.31535 | 113.92016 | 42 ft | 24 kts | 251° |
| 2026-04-30 21:54 | 22.31480 | 113.91846 | 42 ft | 24 kts | 250° |
| 2026-04-30 21:54 | 22.31424 | 113.91682 | 42 ft | 24 kts | 251° |
| 2026-04-30 21:55 | 22.31371 | 113.91514 | 42 ft | 24 kts | 251° |
| 2026-04-30 21:55 | 22.31317 | 113.91346 | 42 ft | 24 kts | 251° |
| 2026-04-30 21:55 | 22.31263 | 113.91179 | 42 ft | 24 kts | 250° |
| 2026-04-30 21:55 | 22.31209 | 113.91012 | 42 ft | 24 kts | 250° |
| 2026-04-30 21:56 | 22.31154 | 113.90844 | 42 ft | 24 kts | 251° |
| 2026-04-30 21:56 | 22.31101 | 113.90677 | 42 ft | 24 kts | 250° |
| 2026-04-30 21:56 | 22.31046 | 113.90509 | 41 ft | 24 kts | 250° |
| 2026-04-30 21:56 | 22.30992 | 113.90341 | 41 ft | 24 kts | 251° |
| 2026-04-30 21:57 | 22.30938 | 113.90173 | 42 ft | 24 kts | 250° |
| 2026-04-30 21:57 | 22.30883 | 113.90005 | 41 ft | 24 kts | 251° |
| 2026-04-30 21:57 | 22.30850 | 113.89881 | 42 ft | 14 kts | 274° |
| 2026-04-30 21:57 | 22.30926 | 113.89814 | 42 ft | 15 kts | 338° |
| 2026-04-30 21:58 | 22.31023 | 113.89778 | 41 ft | 15 kts | 341° |
| 2026-04-30 21:58 | 22.31055 | 113.89766 | 41 ft | 0 kts | 341° |
| 2026-04-30 21:58 | 22.31065 | 113.89768 | 41 ft | 3 kts | 15° |
| 2026-04-30 21:58 | 22.31101 | 113.89818 | 41 ft | 11 kts | 68° |
| 2026-04-30 21:59 | 22.31120 | 113.89878 | 41 ft | 3 kts | 71° |
| 2026-04-30 21:59 | 22.31166 | 113.90020 | 42 ft | 52 kts | 71° |
| 2026-04-30 21:59 | 22.31377 | 113.90673 | 41 ft | 129 kts | 71° |
| 2026-04-30 22:00 | 22.32169 | 113.93133 | 637 ft | 183 kts | 71° |
| 2026-04-30 22:00 | 22.33003 | 113.95767 | 2051 ft | 197 kts | 72° |
| 2026-04-30 22:00 | 22.33544 | 113.97189 | 2506 ft | 209 kts | 61° |
| 2026-04-30 22:01 | 22.34358 | 113.98530 | 3117 ft | 217 kts | 56° |
| 2026-04-30 22:01 | 22.35227 | 113.99862 | 3760 ft | 223 kts | 56° |
| 2026-04-30 22:01 | 22.36128 | 114.01256 | 4425 ft | 228 kts | 57° |
| 2026-04-30 22:01 | 22.37038 | 114.02682 | 5093 ft | 233 kts | 57° |
| 2026-04-30 22:02 | 22.37707 | 114.04301 | 5398 ft | 248 kts | 86° |
| 2026-04-30 22:02 | 22.37350 | 114.06141 | 5745 ft | 259 kts | 119° |
| 2026-04-30 22:02 | 22.36407 | 114.07863 | 6212 ft | 272 kts | 123° |
| 2026-04-30 22:02 | 22.35392 | 114.09631 | 6756 ft | 283 kts | 124° |
| 2026-04-30 22:03 | 22.34338 | 114.11473 | 7339 ft | 292 kts | 123° |
| 2026-04-30 22:03 | 22.33269 | 114.13365 | 8078 ft | 298 kts | 123° |
| 2026-04-30 22:03 | 22.32190 | 114.15298 | 8817 ft | 303 kts | 123° |
| 2026-04-30 22:03 | 22.31101 | 114.17269 | 9552 ft | 308 kts | 123° |
| 2026-04-30 22:04 | 22.29998 | 114.19278 | 10247 ft | 314 kts | 123° |
| 2026-04-30 22:04 | 22.28854 | 114.21370 | 10579 ft | 336 kts | 123° |
| 2026-04-30 22:04 | 22.26305 | 114.26046 | 11039 ft | 383 kts | 122° |
| 2026-04-30 22:05 | 22.24943 | 114.28561 | 11668 ft | 393 kts | 122° |
| 2026-04-30 22:05 | 22.23555 | 114.31131 | 12489 ft | 399 kts | 122° |
| 2026-04-30 22:05 | 22.22573 | 114.32947 | 13123 ft | 401 kts | 122° |
| 2026-04-30 22:05 | 22.21215 | 114.35459 | 13954 ft | 406 kts | 122° |
| 2026-04-30 22:06 | 22.19781 | 114.38108 | 14719 ft | 411 kts | 122° |
| 2026-04-30 22:06 | 22.16853 | 114.43509 | 16209 ft | 422 kts | 122° |
| 2026-04-30 22:06 | 22.15356 | 114.46269 | 16935 ft | 428 kts | 122° |
| 2026-04-30 22:07 | 22.13842 | 114.49058 | 17673 ft | 434 kts | 122° |
| 2026-04-30 22:07 | 22.12308 | 114.51882 | 18390 ft | 439 kts | 122° |
| 2026-04-30 22:07 | 22.10752 | 114.54746 | 19024 ft | 444 kts | 122° |
| 2026-04-30 22:07 | 22.09182 | 114.57633 | 19707 ft | 448 kts | 122° |
| 2026-04-30 22:08 | 22.07617 | 114.60511 | 20372 ft | 451 kts | 122° |
| 2026-04-30 22:08 | 22.06021 | 114.63444 | 21032 ft | 455 kts | 122° |
| 2026-04-30 22:08 | 22.04410 | 114.66401 | 21673 ft | 460 kts | 122° |
| 2026-04-30 22:08 | 22.02785 | 114.69383 | 22313 ft | 464 kts | 122° |
| 2026-04-30 22:09 | 22.01143 | 114.72395 | 22949 ft | 468 kts | 122° |
| 2026-04-30 22:09 | 21.99484 | 114.75437 | 23539 ft | 473 kts | 122° |
| 2026-04-30 22:09 | 21.97806 | 114.78510 | 24052 ft | 477 kts | 123° |
| 2026-04-30 22:09 | 21.96120 | 114.81597 | 24551 ft | 480 kts | 123° |
| 2026-04-30 22:10 | 21.94418 | 114.84712 | 25054 ft | 484 kts | 123° |
| 2026-04-30 22:10 | 21.92705 | 114.87844 | 25554 ft | 487 kts | 123° |
| 2026-04-30 22:10 | 21.90980 | 114.90998 | 26036 ft | 491 kts | 123° |
| 2026-04-30 22:10 | 21.89241 | 114.94176 | 26518 ft | 495 kts | 123° |
| 2026-04-30 22:11 | 21.86444 | 115.01003 | 27345 ft | 508 kts | 104° |
| 2026-04-30 22:11 | 21.85909 | 115.04776 | 27811 ft | 513 kts | 95° |
| 2026-04-30 22:11 | 21.85914 | 115.08628 | 28262 ft | 516 kts | 87° |
| 2026-04-30 22:12 | 21.86162 | 115.12499 | 28672 ft | 521 kts | 86° |
| 2026-04-30 22:12 | 21.86450 | 115.16403 | 29061 ft | 525 kts | 86° |
| 2026-04-30 22:12 | 21.86741 | 115.20283 | 29470 ft | 528 kts | 86° |
| 2026-04-30 22:12 | 21.87024 | 115.24241 | 29858 ft | 532 kts | 86° |
| 2026-04-30 22:13 | 21.87291 | 115.28227 | 30201 ft | 535 kts | 86° |
| 2026-04-30 22:13 | 21.87545 | 115.32236 | 30525 ft | 537 kts | 86° |
| 2026-04-30 22:13 | 21.87788 | 115.36242 | 30963 ft | 536 kts | 86° |
| 2026-04-30 22:13 | 21.88024 | 115.40239 | 31505 ft | 533 kts | 87° |
| 2026-04-30 22:14 | 21.88258 | 115.44214 | 32061 ft | 530 kts | 87° |
| 2026-04-30 22:14 | 21.88489 | 115.48167 | 32569 ft | 528 kts | 87° |
| 2026-04-30 22:14 | 21.88719 | 115.52103 | 33044 ft | 527 kts | 87° |
| 2026-04-30 22:14 | 21.88950 | 115.56046 | 33515 ft | 525 kts | 86° |
| 2026-04-30 22:15 | 21.89180 | 115.59971 | 33984 ft | 524 kts | 87° |
| 2026-04-30 22:15 | 21.89407 | 115.63862 | 34386 ft | 522 kts | 87° |
| 2026-04-30 22:15 | 21.89635 | 115.67767 | 34738 ft | 522 kts | 87° |
| 2026-04-30 22:15 | 21.89858 | 115.71625 | 35072 ft | 522 kts | 87° |
| 2026-04-30 22:16 | 21.90083 | 115.75515 | 35425 ft | 521 kts | 87° |
| 2026-04-30 22:16 | 21.90307 | 115.79417 | 35775 ft | 520 kts | 87° |
| 2026-04-30 22:17 | 21.90971 | 115.91066 | 36771 ft | 519 kts | 87° |
| 2026-04-30 22:17 | 21.91190 | 115.94945 | 36969 ft | 521 kts | 87° |
| 2026-04-30 22:17 | 21.91629 | 116.02779 | 37024 ft | 524 kts | 87° |
| 2026-04-30 22:18 | 21.92277 | 116.14433 | 37024 ft | 517 kts | 87° |
| 2026-04-30 22:19 | 21.92915 | 116.26060 | 37042 ft | 524 kts | 87° |
| 2026-04-30 22:20 | 21.93558 | 116.37955 | 37037 ft | 537 kts | 87° |
| 2026-04-30 22:20 | 21.94206 | 116.50098 | 37041 ft | 546 kts | 87° |
| 2026-04-30 22:21 | 21.94640 | 116.58307 | 37041 ft | 551 kts | 87° |
| 2026-04-30 22:21 | 21.95072 | 116.66566 | 37036 ft | 554 kts | 87° |
| 2026-04-30 22:22 | 21.95502 | 116.74883 | 37033 ft | 557 kts | 87° |
| 2026-04-30 22:22 | 21.95927 | 116.83171 | 37026 ft | 558 kts | 88° |
| 2026-04-30 22:23 | 21.96351 | 116.91518 | 37029 ft | 558 kts | 88° |
| 2026-04-30 22:23 | 21.96771 | 116.99881 | 37030 ft | 557 kts | 88° |
| 2026-04-30 22:24 | 21.97186 | 117.08210 | 37028 ft | 556 kts | 88° |
| 2026-04-30 22:24 | 21.97594 | 117.16504 | 37029 ft | 555 kts | 88° |
| 2026-04-30 22:25 | 21.97999 | 117.24816 | 37028 ft | 555 kts | 88° |
| 2026-04-30 22:25 | 21.98399 | 117.33111 | 37030 ft | 554 kts | 88° |
| 2026-04-30 22:26 | 21.99158 | 117.45528 | 37023 ft | 554 kts | 81° |
| 2026-04-30 22:27 | 22.01335 | 117.53477 | 37035 ft | 553 kts | 66° |
| 2026-04-30 22:27 | 22.07084 | 117.64164 | 37027 ft | 552 kts | 56° |
| 2026-04-30 22:28 | 22.13195 | 117.74702 | 37027 ft | 553 kts | 57° |
| 2026-04-30 22:29 | 22.21197 | 117.88916 | 37028 ft | 555 kts | 57° |
| 2026-04-30 22:31 | 22.35448 | 118.13712 | 37038 ft | 554 kts | 56° |
| 2026-04-30 22:32 | 22.45639 | 118.31405 | 37040 ft | 555 kts | 57° |
| 2026-04-30 22:33 | 22.55684 | 118.49218 | 37041 ft | 555 kts | 57° |
| 2026-04-30 22:35 | 22.65785 | 118.66952 | 37045 ft | 555 kts | 57° |
| 2026-04-30 22:36 | 22.75917 | 118.84763 | 37041 ft | 555 kts | 57° |
| 2026-04-30 22:37 | 22.83989 | 118.99007 | 37041 ft | 556 kts | 57° |
| 2026-04-30 22:38 | 22.92072 | 119.13307 | 37042 ft | 556 kts | 57° |
| 2026-04-30 22:39 | 22.98131 | 119.24053 | 37033 ft | 556 kts | 57° |
| 2026-04-30 22:40 | 23.09519 | 119.44313 | 37031 ft | 557 kts | 57° |
| 2026-04-30 22:41 | 23.19594 | 119.62306 | 37029 ft | 557 kts | 57° |
| 2026-04-30 22:43 | 23.31635 | 119.83918 | 37036 ft | 558 kts | 57° |
| 2026-04-30 22:44 | 23.40907 | 119.97349 | 37023 ft | 553 kts | 40° |
| 2026-04-30 22:45 | 23.57751 | 120.14497 | 37032 ft | 554 kts | 40° |
| 2026-04-30 22:47 | 23.74528 | 120.31889 | 37031 ft | 554 kts | 40° |
| 2026-04-30 22:48 | 23.85687 | 120.43480 | 37034 ft | 555 kts | 40° |
| 2026-04-30 22:49 | 24.02408 | 120.61030 | 37050 ft | 555 kts | 41° |
| 2026-04-30 22:51 | 24.19079 | 120.78672 | 37054 ft | 556 kts | 41° |
| 2026-04-30 22:52 | 24.27396 | 120.87495 | 37059 ft | 556 kts | 41° |
| 2026-04-30 22:53 | 24.38502 | 120.99307 | 37067 ft | 551 kts | 41° |
| 2026-04-30 22:53 | 24.46119 | 121.08635 | 37084 ft | 548 kts | 49° |
| 2026-04-30 22:55 | 24.57899 | 121.25100 | 37090 ft | 549 kts | 49° |
| 2026-04-30 22:56 | 24.67432 | 121.38268 | 37109 ft | 549 kts | 48° |
| 2026-04-30 22:57 | 24.79337 | 121.54776 | 37103 ft | 551 kts | 48° |
| 2026-04-30 22:58 | 24.88864 | 121.68034 | 37101 ft | 552 kts | 48° |
| 2026-04-30 22:59 | 25.03845 | 121.87231 | 37103 ft | 553 kts | 45° |